Time;durP1;ratioP1;P1;durP2;ratioP2;P2;SDS_P1;SDS_P2;PMS_P1;PMS_P2;Temp;Humidity;BMP_temperature;BMP_pressure;BME280_temperature;BME280_humidity;BME280_pressure;Samples;Min_cycle;Max_cycle;Signal;HPM_P1;HPM_P2
2023/06/23 00:01:14;;;;;;;2.65;1.30;;;21.30;99.90;;;;;;5053624;28;20025;-75
2023/06/23 00:03:40;;;;;;;1.92;1.13;;;21.30;99.90;;;;;;5027700;28;20054;-77
2023/06/23 00:06:06;;;;;;;3.08;1.15;;;21.30;99.90;;;;;;5046459;28;20021;-76
2023/06/23 00:08:35;;;;;;;1.65;1.13;;;21.30;99.90;;;;;;5049782;28;20036;-75
2023/06/23 00:11:01;;;;;;;1.75;1.20;;;21.30;99.90;;;;;;5047968;28;20025;-75
2023/06/23 00:13:26;;;;;;;3.25;1.15;;;21.30;99.90;;;;;;5048980;28;20033;-75
2023/06/23 00:15:53;;;;;;;2.30;1.20;;;21.40;99.90;;;;;;5048556;28;20021;-75
2023/06/23 00:18:20;;;;;;;2.03;1.17;;;21.40;99.90;;;;;;5047258;28;20041;-75
2023/06/23 00:20:46;;;;;;;1.60;0.93;;;21.40;99.90;;;;;;5046441;28;20024;-76
2023/06/23 00:23:13;;;;;;;2.45;1.30;;;21.40;99.90;;;;;;5045112;28;20377;-76
2023/06/23 00:25:39;;;;;;;1.40;1.10;;;21.40;99.90;;;;;;5047031;28;20503;-75
2023/06/23 00:28:04;;;;;;;3.15;1.17;;;21.20;99.90;;;;;;5032006;28;20063;-76
2023/06/23 00:30:30;;;;;;;3.58;1.35;;;21.10;99.90;;;;;;5051018;28;20028;-76
2023/06/23 00:32:55;;;;;;;4.57;1.85;;;21.00;99.90;;;;;;5052275;28;20032;-76
2023/06/23 00:35:22;;;;;;;2.65;1.38;;;20.90;99.90;;;;;;5065641;28;20472;-76
2023/06/23 00:37:47;;;;;;;2.35;1.45;;;20.80;99.90;;;;;;5038606;28;20099;-75
2023/06/23 00:40:15;;;;;;;2.72;1.52;;;20.70;99.90;;;;;;5056733;28;20112;-76
2023/06/23 00:42:46;;;;;;;3.70;1.50;;;20.60;99.90;;;;;;5058646;28;20040;-75
2023/06/23 00:45:13;;;;;;;2.92;1.48;;;20.60;99.90;;;;;;5052199;28;20033;-76
2023/06/23 00:47:40;;;;;;;2.72;1.63;;;20.60;99.90;;;;;;5052107;28;20027;-75
2023/06/23 00:50:06;;;;;;;2.58;1.40;;;20.50;99.90;;;;;;5051222;28;20033;-75
2023/06/23 00:52:32;;;;;;;2.95;1.45;;;20.50;99.90;;;;;;5039733;28;20113;-75
2023/06/23 00:55:00;;;;;;;3.05;1.88;;;20.40;99.90;;;;;;5032560;28;20108;-75
2023/06/23 00:57:28;;;;;;;2.72;1.63;;;20.40;99.90;;;;;;5032911;28;20039;-75
2023/06/23 00:59:54;;;;;;;2.55;1.63;;;20.40;99.90;;;;;;5051737;28;20108;-75
2023/06/23 01:02:20;;;;;;;5.25;1.80;;;20.40;99.90;;;;;;5033694;28;20124;-75
2023/06/23 01:04:48;;;;;;;3.03;1.50;;;20.40;99.90;;;;;;5052097;28;20021;-75
2023/06/23 01:07:46;;;;;;;3.75;1.52;;;20.40;99.90;;;;;;5043429;28;20127;-75
2023/06/23 01:10:22;;;;;;;2.90;1.63;;;20.40;99.90;;;;;;5011891;28;20029;-75
2023/06/23 01:13:13;;;;;;;2.53;1.23;;;20.40;99.90;;;;;;5071817;28;20017;-75
2023/06/23 01:15:49;;;;;;;2.83;1.63;;;20.30;99.90;;;;;;5071455;28;20471;-75
2023/06/23 01:18:49;;;;;;;2.47;1.27;;;20.30;99.90;;;;;;5071573;28;20158;-75
2023/06/23 01:21:27;;;;;;;2.97;1.60;;;20.20;99.90;;;;;;5027173;28;20417;-74
2023/06/23 01:24:31;;;;;;;2.70;1.50;;;20.20;99.90;;;;;;5028756;28;20021;-73
2023/06/23 01:27:20;;;;;;;2.78;1.70;;;20.20;99.90;;;;;;4968268;28;20038;-73
2023/06/23 01:29:49;;;;;;;7.30;2.22;;;20.20;99.90;;;;;;4964560;28;20161;-73
2023/06/23 01:32:20;;;;;;;2.97;1.42;;;20.20;99.90;;;;;;5020486;28;20085;-74
2023/06/23 01:34:50;;;;;;;2.92;1.38;;;20.20;99.90;;;;;;5030047;28;20179;-73
2023/06/23 01:37:21;;;;;;;2.20;1.55;;;20.10;99.90;;;;;;5047523;28;20025;-73
2023/06/23 01:40:04;;;;;;;1.60;1.25;;;20.20;99.90;;;;;;5045208;28;20028;-73
2023/06/23 01:42:32;;;;;;;2.20;1.20;;;20.10;99.90;;;;;;5045081;28;20029;-73
2023/06/23 01:45:00;;;;;;;3.53;1.48;;;20.00;99.90;;;;;;5041446;28;20037;-73
2023/06/23 01:47:30;;;;;;;2.92;1.77;;;20.00;99.90;;;;;;5056238;28;20031;-73
2023/06/23 01:50:01;;;;;;;2.40;1.77;;;19.90;99.90;;;;;;5070534;28;20494;-73
2023/06/23 01:52:29;;;;;;;3.88;2.20;;;19.80;99.90;;;;;;5067574;28;20360;-74
2023/06/23 01:54:57;;;;;;;2.85;2.00;;;19.60;99.90;;;;;;5055563;28;20036;-74
2023/06/23 01:57:24;;;;;;;2.63;2.05;;;19.50;99.90;;;;;;5037315;28;20490;-74
2023/06/23 01:59:52;;;;;;;2.20;1.50;;;19.30;99.90;;;;;;5046204;28;20506;-72
2023/06/23 02:02:19;;;;;;;2.35;1.73;;;19.20;99.90;;;;;;5049450;28;20026;-74
2023/06/23 02:04:48;;;;;;;4.72;2.20;;;19.10;99.90;;;;;;5056310;28;20070;-76
2023/06/23 02:07:18;;;;;;;4.15;2.20;;;19.00;99.90;;;;;;5055712;28;20017;-75
2023/06/23 02:09:45;;;;;;;2.75;2.10;;;18.90;99.90;;;;;;5068160;28;20173;-75
2023/06/23 02:12:12;;;;;;;2.55;1.90;;;18.90;99.90;;;;;;5067083;28;20063;-74
2023/06/23 02:14:40;;;;;;;3.20;2.50;;;18.80;99.90;;;;;;5059706;28;20459;-75
2023/06/23 02:17:10;;;;;;;2.38;1.77;;;18.80;99.90;;;;;;5057929;28;20032;-75
2023/06/23 02:19:39;;;;;;;3.63;2.60;;;18.70;99.90;;;;;;5055358;28;20032;-74
2023/06/23 02:22:14;;;;;;;3.35;2.42;;;18.70;99.90;;;;;;5055590;28;20028;-73
2023/06/23 02:24:41;;;;;;;3.67;2.90;;;18.70;99.90;;;;;;5045872;28;20033;-74
2023/06/23 02:27:08;;;;;;;3.95;2.38;;;18.80;99.90;;;;;;5055556;28;20025;-75
2023/06/23 02:29:40;;;;;;;5.57;2.50;;;18.70;99.90;;;;;;5050308;28;20025;-73
2023/06/23 02:32:06;;;;;;;3.35;2.47;;;18.80;99.90;;;;;;5053271;28;20025;-73
2023/06/23 02:34:34;;;;;;;3.75;2.70;;;18.80;99.90;;;;;;5027784;28;20025;-74
2023/06/23 02:37:04;;;;;;;5.85;2.53;;;18.80;99.90;;;;;;5058425;28;20475;-74
2023/06/23 02:39:34;;;;;;;4.35;2.67;;;18.80;99.90;;;;;;5052342;28;20112;-72
2023/06/23 02:42:02;;;;;;;4.85;2.83;;;18.90;99.90;;;;;;5062847;28;20557;-74
2023/06/23 02:44:37;;;;;;;3.97;2.80;;;18.90;99.90;;;;;;5039775;28;20025;-75
2023/06/23 02:47:08;;;;;;;3.72;2.40;;;18.90;99.90;;;;;;5058899;28;20111;-74
2023/06/23 02:49:37;;;;;;;4.55;2.90;;;18.90;99.90;;;;;;5061763;28;20475;-73
2023/06/23 02:52:05;;;;;;;4.90;2.75;;;18.90;99.90;;;;;;5037503;28;20030;-74
2023/06/23 02:54:36;;;;;;;3.47;2.28;;;19.00;99.90;;;;;;5039774;28;20021;-74
2023/06/23 02:57:02;;;;;;;3.33;2.00;;;18.90;99.90;;;;;;5048226;28;20049;-74
2023/06/23 02:59:30;;;;;;;3.55;2.33;;;18.90;99.90;;;;;;5053917;28;20124;-75
2023/06/23 03:01:58;;;;;;;3.03;2.20;;;18.90;99.90;;;;;;5037197;28;20078;-75
2023/06/23 03:04:24;;;;;;;2.97;2.30;;;18.80;99.90;;;;;;5056591;28;20021;-75
2023/06/23 03:06:51;;;;;;;3.45;2.15;;;18.80;99.90;;;;;;5054675;28;20033;-75
2023/06/23 03:09:17;;;;;;;3.25;2.28;;;18.80;99.90;;;;;;5030194;28;20028;-74
2023/06/23 03:11:42;;;;;;;2.95;2.10;;;18.80;99.90;;;;;;5045290;28;20028;-74
2023/06/23 03:14:08;;;;;;;2.83;2.13;;;18.80;99.90;;;;;;5060768;28;20012;-75
2023/06/23 03:16:50;;;;;;;3.17;2.15;;;18.80;99.90;;;;;;5066547;28;20021;-75
2023/06/23 03:19:32;;;;;;;4.40;2.13;;;18.80;99.90;;;;;;5054591;28;20025;-73
2023/06/23 03:22:10;;;;;;;2.90;2.25;;;18.90;99.90;;;;;;5054642;28;20025;-74
2023/06/23 03:24:39;;;;;;;2.70;1.90;;;18.80;99.90;;;;;;5038553;28;20480;-73
2023/06/23 03:27:10;;;;;;;2.38;1.90;;;18.80;99.90;;;;;;5052333;28;20033;-72
2023/06/23 03:29:40;;;;;;;4.72;2.22;;;18.80;99.90;;;;;;5047066;28;20029;-74
2023/06/23 03:32:10;;;;;;;2.63;1.83;;;18.80;99.90;;;;;;5055423;28;20025;-73
2023/06/23 03:34:42;;;;;;;4.03;2.25;;;18.80;99.90;;;;;;5058633;28;20025;-75
2023/06/23 03:37:10;;;;;;;3.78;2.30;;;18.80;99.90;;;;;;5053953;28;20017;-76
2023/06/23 03:39:38;;;;;;;3.42;2.53;;;18.80;99.90;;;;;;5044446;28;20025;-74
2023/06/23 03:42:04;;;;;;;3.42;2.45;;;18.80;99.90;;;;;;5052113;28;20025;-76
2023/06/23 03:44:44;;;;;;;3.28;2.50;;;18.80;99.90;;;;;;5051307;28;20036;-74
2023/06/23 03:47:14;;;;;;;3.25;2.70;;;18.90;99.90;;;;;;5056151;28;20021;-75
2023/06/23 03:49:47;;;;;;;3.13;2.75;;;18.90;99.90;;;;;;5032532;28;20399;-75
2023/06/23 03:52:15;;;;;;;4.28;2.58;;;18.90;99.90;;;;;;5036175;28;20036;-74
2023/06/23 03:54:42;;;;;;;4.13;2.28;;;18.90;99.90;;;;;;5058186;28;20029;-75
2023/06/23 03:57:12;;;;;;;4.63;2.67;;;18.90;99.90;;;;;;5059397;28;20021;-76
2023/06/23 03:59:39;;;;;;;5.32;2.97;;;18.90;99.90;;;;;;5034584;28;20048;-76
2023/06/23 04:02:06;;;;;;;4.07;3.00;;;18.90;99.90;;;;;;5057856;28;20579;-75
2023/06/23 04:04:34;;;;;;;4.47;2.80;;;18.90;99.90;;;;;;5054068;28;20185;-76
2023/06/23 04:07:01;;;;;;;4.97;2.97;;;18.90;99.90;;;;;;5046667;28;20043;-75
2023/06/23 04:09:28;;;;;;;5.63;3.10;;;18.90;99.90;;;;;;5072606;28;20059;-75
2023/06/23 04:11:55;;;;;;;5.35;3.17;;;18.90;99.90;;;;;;5043688;28;20112;-75
2023/06/23 04:14:23;;;;;;;4.00;2.90;;;18.90;99.90;;;;;;5062127;28;20638;-75
2023/06/23 04:16:51;;;;;;;4.25;3.30;;;18.90;99.90;;;;;;5048011;28;20032;-75
2023/06/23 04:19:21;;;;;;;5.45;3.38;;;18.90;99.90;;;;;;5052442;28;20028;-75
2023/06/23 04:21:48;;;;;;;4.82;3.33;;;18.90;99.90;;;;;;5045496;28;20035;-75
2023/06/23 04:24:16;;;;;;;5.63;3.42;;;18.90;99.90;;;;;;5060088;28;20023;-74
2023/06/23 04:26:43;;;;;;;5.82;3.30;;;18.90;99.90;;;;;;5041738;28;20021;-75
2023/06/23 04:29:12;;;;;;;5.35;3.85;;;18.90;99.90;;;;;;5043057;28;20078;-75
2023/06/23 04:31:40;;;;;;;6.47;3.90;;;18.90;99.90;;;;;;5068901;28;20364;-75
2023/06/23 04:34:05;;;;;;;5.80;4.10;;;18.90;99.90;;;;;;5057853;28;20084;-75
2023/06/23 04:36:54;;;;;;;5.93;4.05;;;18.80;99.90;;;;;;5051119;28;20071;-75
2023/06/23 04:39:27;;;;;;;6.00;4.38;;;18.80;99.90;;;;;;5055493;28;20079;-75
2023/06/23 04:41:56;;;;;;;;;;;18.80;99.90;;;;;;5054477;28;20475;-75
2023/06/23 04:44:26;;;;;;;5.38;4.15;;;18.80;99.90;;;;;;5065462;28;19913;-75
2023/06/23 04:46:54;;;;;;;5.50;4.18;;;18.80;99.90;;;;;;5060269;28;20021;-76
2023/06/23 04:49:23;;;;;;;6.20;4.03;;;18.80;99.90;;;;;;5052264;28;20021;-69
2023/06/23 04:51:53;;;;;;;9.07;5.25;;;18.80;99.90;;;;;;5048422;28;20099;-69
2023/06/23 04:54:24;;;;;;;6.15;4.05;;;18.90;99.90;;;;;;5043914;28;20467;-70
2023/06/23 04:56:59;;;;;;;5.50;3.80;;;18.90;99.90;;;;;;5043628;28;20377;-69
2023/06/23 04:59:27;;;;;;;6.05;4.10;;;19.00;99.90;;;;;;5025565;28;20814;-69
2023/06/23 05:01:54;;;;;;;5.90;4.30;;;19.10;99.90;;;;;;5044209;28;20028;-68
2023/06/23 05:04:20;;;;;;;6.93;4.45;;;19.10;99.90;;;;;;5024332;28;20047;-68
2023/06/23 05:06:46;;;;;;;7.07;5.00;;;19.20;99.90;;;;;;5049149;28;20028;-68
2023/06/23 05:09:15;;;;;;;6.32;5.25;;;19.20;99.90;;;;;;5040463;28;20049;-69
2023/06/23 05:11:43;;;;;;;6.88;5.05;;;19.20;99.90;;;;;;5044323;28;20546;-68
2023/06/23 05:14:08;;;;;;;8.60;5.78;;;19.30;99.90;;;;;;5042625;28;20031;-69
2023/06/23 05:16:36;;;;;;;11.55;5.85;;;19.30;99.90;;;;;;5028699;28;20033;-69
2023/06/23 05:19:06;;;;;;;5.93;4.97;;;19.30;99.90;;;;;;5046624;28;20028;-69
2023/06/23 05:21:33;;;;;;;9.98;5.68;;;19.30;99.90;;;;;;5058336;28;20126;-74
2023/06/23 05:24:00;;;;;;;7.63;5.63;;;19.30;99.90;;;;;;5071575;28;20044;-75
2023/06/23 05:26:33;;;;;;;7.45;5.53;;;19.30;99.90;;;;;;5063268;28;20031;-70
2023/06/23 05:29:03;;;;;;;9.00;7.07;;;19.30;99.90;;;;;;5049215;28;20135;-70
2023/06/23 05:31:30;;;;;;;8.35;6.32;;;19.40;99.90;;;;;;5050542;28;20382;-69
2023/06/23 05:33:58;;;;;;;10.75;7.00;;;19.30;99.90;;;;;;5045568;28;20021;-70
2023/06/23 05:36:25;;;;;;;10.88;7.28;;;19.40;99.90;;;;;;5030232;28;20048;-70
2023/06/23 05:38:53;;;;;;;11.70;7.45;;;19.40;99.90;;;;;;5047426;28;21402;-69
2023/06/23 05:41:19;;;;;;;11.15;8.07;;;19.40;99.90;;;;;;5051923;28;20029;-76
2023/06/23 05:43:44;;;;;;;13.18;7.95;;;19.40;99.90;;;;;;5032995;28;20539;-75
2023/06/23 05:46:14;;;;;;;10.52;7.35;;;19.40;99.90;;;;;;5063946;28;20067;-75
2023/06/23 05:48:46;;;;;;;11.48;8.30;;;19.50;99.90;;;;;;5050306;28;20392;-75
2023/06/23 05:51:17;;;;;;;10.05;7.13;;;19.40;99.90;;;;;;5041251;28;20104;-75
2023/06/23 05:53:45;;;;;;;12.75;9.00;;;19.40;99.90;;;;;;5044302;28;20029;-76
2023/06/23 05:56:20;;;;;;;11.95;8.93;;;19.40;99.90;;;;;;5036668;28;20048;-76
2023/06/23 05:58:47;;;;;;;12.57;8.65;;;19.40;99.90;;;;;;5053387;28;20035;-76
2023/06/23 06:01:16;;;;;;;11.27;8.60;;;19.40;99.90;;;;;;5055612;28;20029;-76
2023/06/23 06:03:46;;;;;;;13.20;9.45;;;19.40;99.90;;;;;;5040779;28;20024;-75
2023/06/23 06:06:13;;;;;;;12.27;9.35;;;19.40;99.90;;;;;;5061797;28;20056;-75
2023/06/23 06:08:40;;;;;;;13.75;9.85;;;19.30;99.90;;;;;;5023284;28;20056;-77
2023/06/23 06:11:09;;;;;;;13.35;9.95;;;19.30;99.90;;;;;;5053292;28;20488;-76
2023/06/23 06:13:41;;;;;;;14.40;9.00;;;19.30;99.90;;;;;;5050517;28;20056;-76
2023/06/23 06:16:09;;;;;;;12.48;9.07;;;19.30;99.90;;;;;;5033592;28;20036;-75
2023/06/23 06:18:37;;;;;;;15.32;9.30;;;19.30;99.90;;;;;;5050807;28;20048;-76
2023/06/23 06:21:04;;;;;;;17.17;10.15;;;19.40;99.90;;;;;;5051900;28;20036;-76
2023/06/23 06:23:31;;;;;;;15.23;10.35;;;19.40;99.90;;;;;;5044095;28;20055;-76
2023/06/23 06:26:00;;;;;;;14.02;10.20;;;19.40;99.90;;;;;;5071067;28;20032;-76
2023/06/23 06:28:27;;;;;;;14.48;10.45;;;19.40;99.90;;;;;;5070804;28;20020;-76
2023/06/23 06:30:55;;;;;;;15.20;11.32;;;19.40;99.90;;;;;;5071332;28;20470;-77
2023/06/23 06:33:23;;;;;;;14.93;10.73;;;19.40;99.90;;;;;;5052346;28;20482;-75
2023/06/23 06:35:51;;;;;;;17.52;10.93;;;19.40;99.90;;;;;;5052853;28;20062;-76
2023/06/23 06:38:19;;;;;;;14.82;10.68;;;19.40;99.90;;;;;;5070913;28;20024;-76
2023/06/23 06:40:47;;;;;;;17.17;11.27;;;19.40;99.90;;;;;;5052609;28;20023;-77
2023/06/23 06:43:13;;;;;;;18.95;13.48;;;19.50;99.90;;;;;;5070341;28;20378;-74
2023/06/23 06:45:39;;;;;;;17.40;12.27;;;19.50;99.90;;;;;;5070259;28;20059;-76
2023/06/23 06:48:05;;;;;;;21.42;13.77;;;19.50;99.90;;;;;;5052454;28;20074;-76
2023/06/23 06:50:32;;;;;;;18.60;11.90;;;19.60;99.90;;;;;;5032417;28;20026;-75
2023/06/23 06:52:59;;;;;;;18.88;12.18;;;19.60;99.90;;;;;;5048903;28;20389;-75
2023/06/23 06:55:25;;;;;;;18.45;12.27;;;19.70;99.90;;;;;;5064634;28;20494;-74
2023/06/23 06:57:51;;;;;;;18.27;12.50;;;19.70;99.90;;;;;;5054584;28;20029;-75
2023/06/23 07:00:19;;;;;;;18.05;13.98;;;19.80;99.90;;;;;;5052186;28;20032;-73
2023/06/23 07:02:45;;;;;;;20.08;12.95;;;19.80;99.90;;;;;;5054050;28;20388;-76
2023/06/23 07:05:11;;;;;;;20.67;14.13;;;19.90;99.90;;;;;;5049794;28;20021;-75
2023/06/23 07:07:37;;;;;;;18.83;14.05;;;19.90;99.90;;;;;;5054248;28;20034;-75
2023/06/23 07:10:04;;;;;;;18.02;13.30;;;20.00;99.90;;;;;;5052328;28;20107;-75
2023/06/23 07:12:31;;;;;;;19.95;13.95;;;20.00;99.90;;;;;;5052713;28;20041;-74
2023/06/23 07:14:57;;;;;;;19.52;15.02;;;20.00;99.90;;;;;;5053544;28;20039;-74
2023/06/23 07:17:22;;;;;;;19.20;14.65;;;20.00;99.90;;;;;;5046590;28;20103;-75
2023/06/23 07:19:48;;;;;;;20.27;14.77;;;20.00;99.90;;;;;;5047648;28;20040;-73
2023/06/23 07:22:13;;;;;;;19.38;14.15;;;20.10;99.90;;;;;;5048339;28;20025;-74
2023/06/23 07:24:39;;;;;;;19.33;14.68;;;20.10;99.90;;;;;;5060785;28;20051;-76
2023/06/23 07:27:08;;;;;;;21.13;15.38;;;20.20;99.90;;;;;;5055638;28;20499;-75
2023/06/23 07:29:33;;;;;;;22.55;15.57;;;20.30;99.90;;;;;;5049242;28;20017;-76
2023/06/23 07:32:01;;;;;;;20.20;14.70;;;20.30;99.90;;;;;;5050408;28;20032;-75
2023/06/23 07:34:28;;;;;;;21.55;16.15;;;20.40;99.90;;;;;;5051314;28;20404;-77
2023/06/23 07:36:54;;;;;;;24.40;16.20;;;20.50;99.90;;;;;;5055961;28;20108;-77
2023/06/23 07:39:19;;;;;;;21.60;15.32;;;20.50;99.90;;;;;;5054855;28;20365;-77
2023/06/23 07:41:45;;;;;;;21.17;13.98;;;20.60;99.90;;;;;;5042011;28;20028;-77
2023/06/23 07:44:11;;;;;;;23.20;15.52;;;20.70;99.90;;;;;;5039308;28;20164;-77
2023/06/23 07:46:36;;;;;;;20.25;14.60;;;20.80;99.90;;;;;;5035581;28;20036;-77
2023/06/23 07:49:02;;;;;;;21.08;15.20;;;20.80;99.90;;;;;;5045720;28;20137;-76
2023/06/23 07:51:28;;;;;;;21.52;14.75;;;20.80;99.90;;;;;;5030984;28;20033;-75
2023/06/23 07:53:53;;;;;;;20.50;13.50;;;20.90;99.90;;;;;;5047016;28;20078;-76
2023/06/23 07:56:19;;;;;;;20.17;13.73;;;20.90;99.90;;;;;;5047378;28;20547;-76
2023/06/23 07:58:45;;;;;;;19.00;13.73;;;20.90;99.90;;;;;;5046418;28;20060;-76
2023/06/23 08:01:12;;;;;;;21.65;15.10;;;20.80;99.90;;;;;;5030217;28;20040;-76
2023/06/23 08:03:38;;;;;;;18.77;14.07;;;20.80;99.90;;;;;;5031080;28;20067;-76
2023/06/23 08:06:03;;;;;;;20.00;14.43;;;20.80;99.90;;;;;;5045048;28;20492;-76
2023/06/23 08:08:29;;;;;;;18.45;13.30;;;20.80;99.90;;;;;;5047465;28;20043;-76
2023/06/23 08:10:54;;;;;;;19.05;14.38;;;20.80;99.90;;;;;;5033002;28;20025;-76
2023/06/23 08:13:20;;;;;;;21.23;13.93;;;20.80;99.90;;;;;;5049109;28;20029;-76
2023/06/23 08:15:47;;;;;;;17.30;13.88;;;20.80;99.90;;;;;;5048830;28;20028;-77
2023/06/23 08:18:12;;;;;;;17.33;13.35;;;20.80;99.90;;;;;;5049697;28;20025;-77
2023/06/23 08:20:38;;;;;;;29.52;13.30;;;20.80;99.90;;;;;;5050463;28;20396;-76
2023/06/23 08:23:04;;;;;;;18.77;13.52;;;20.80;99.90;;;;;;5048227;28;20119;-76
2023/06/23 08:25:29;;;;;;;16.73;12.38;;;20.90;99.90;;;;;;5031522;28;20116;-76
2023/06/23 08:27:55;;;;;;;18.90;12.00;;;21.10;99.90;;;;;;5030364;28;20084;-76
2023/06/23 08:30:28;;;;;;;15.60;11.32;;;21.20;99.90;;;;;;5048016;28;20063;-75
2023/06/23 08:32:54;;;;;;;;;;;21.20;99.90;;;;;;5051238;28;20518;-76
2023/06/23 08:35:20;;;;;;;19.42;12.35;;;21.30;99.90;;;;;;5051809;28;19909;-75
2023/06/23 08:37:45;;;;;;;15.15;11.65;;;21.40;99.90;;;;;;5045935;28;20049;-76
2023/06/23 08:40:11;;;;;;;16.88;11.43;;;21.50;99.90;;;;;;5044950;28;20538;-75
2023/06/23 08:42:37;;;;;;;16.50;11.10;;;21.60;99.90;;;;;;5046879;28;20028;-75
2023/06/23 08:45:04;;;;;;;18.98;10.40;;;21.70;99.90;;;;;;5045887;28;20429;-74
2023/06/23 08:47:30;;;;;;;13.43;9.65;;;21.70;99.90;;;;;;5043261;28;20032;-75
2023/06/23 08:49:57;;;;;;;13.05;9.75;;;21.80;99.90;;;;;;5047135;28;20056;-75
2023/06/23 08:52:24;;;;;;;12.52;8.20;;;21.80;99.90;;;;;;5044540;28;20055;-75
2023/06/23 08:54:50;;;;;;;9.90;7.88;;;21.70;99.20;;;;;;5041554;28;20033;-75
2023/06/23 08:57:16;;;;;;;10.30;7.93;;;21.60;98.30;;;;;;5038390;28;20095;-76
2023/06/23 08:59:42;;;;;;;12.82;7.63;;;21.60;97.80;;;;;;5042816;28;20140;-75
2023/06/23 09:02:08;;;;;;;12.90;7.80;;;21.60;97.90;;;;;;5022209;28;20112;-75
2023/06/23 09:04:33;;;;;;;11.85;7.70;;;21.60;97.70;;;;;;5042600;28;20500;-77
2023/06/23 09:06:59;;;;;;;10.43;7.07;;;21.70;97.30;;;;;;5036951;28;20043;-77
2023/06/23 09:09:25;;;;;;;9.93;7.10;;;21.80;97.20;;;;;;5046351;28;20026;-77
2023/06/23 09:11:51;;;;;;;7.13;5.22;;;21.90;97.10;;;;;;5040693;28;20037;-75
2023/06/23 09:14:18;;;;;;;12.40;6.25;;;22.00;97.40;;;;;;5042162;28;20048;-77
2023/06/23 09:16:45;;;;;;;11.13;6.20;;;22.10;97.20;;;;;;5043272;28;20024;-77
2023/06/23 09:19:11;;;;;;;8.35;5.68;;;22.30;96.70;;;;;;5045237;28;20037;-77
2023/06/23 09:21:40;;;;;;;9.10;6.80;;;22.40;96.00;;;;;;5041729;28;20087;-75
2023/06/23 09:24:07;;;;;;;8.32;6.32;;;22.40;95.60;;;;;;5041202;28;20025;-77
2023/06/23 09:26:54;;;;;;;10.23;7.00;;;22.50;95.70;;;;;;5044852;28;20090;-77
2023/06/23 09:29:20;;;;;;;9.65;5.60;;;22.40;94.60;;;;;;5026255;28;20108;-75
2023/06/23 09:31:51;;;;;;;6.88;5.03;;;22.50;94.70;;;;;;5043360;28;20045;-77
2023/06/23 09:34:25;;;;;;;8.32;5.30;;;22.60;94.50;;;;;;5026346;28;20025;-77
2023/06/23 09:36:52;;;;;;;7.90;4.47;;;22.60;93.80;;;;;;5038780;28;20029;-77
2023/06/23 09:39:19;;;;;;;6.85;5.10;;;22.70;93.90;;;;;;5043345;28;20025;-77
2023/06/23 09:41:55;;;;;;;8.18;4.93;;;22.70;93.30;;;;;;5040608;28;20028;-76
2023/06/23 09:44:21;;;;;;;8.50;4.93;;;22.70;93.30;;;;;;5041202;28;20122;-76
2023/06/23 09:46:47;;;;;;;9.65;4.60;;;22.70;93.00;;;;;;5041080;28;20045;-77
2023/06/23 09:49:12;;;;;;;6.18;4.20;;;22.70;93.10;;;;;;5042469;28;20025;-77
2023/06/23 09:51:46;;;;;;;8.10;4.15;;;22.80;93.10;;;;;;5044944;28;20029;-77
2023/06/23 09:54:12;;;;;;;;;;;22.90;92.90;;;;;;5025196;28;20112;-77
2023/06/23 09:56:37;;;;;;;5.30;4.45;;;23.00;91.80;;;;;;5044360;28;20354;-77
2023/06/23 09:59:03;;;;;;;7.28;4.20;;;23.00;91.60;;;;;;5046692;28;20109;-77
2023/06/23 10:01:29;;;;;;;8.35;4.32;;;23.10;91.50;;;;;;5041753;28;20116;-77
2023/06/23 10:03:55;;;;;;;7.68;4.70;;;23.10;91.30;;;;;;5044124;28;20095;-77
2023/06/23 10:06:32;;;;;;;8.75;4.63;;;23.10;91.00;;;;;;5045716;28;20033;-77
2023/06/23 10:08:59;;;;;;;5.43;3.92;;;23.20;90.70;;;;;;5029869;28;20515;-77
2023/06/23 10:11:43;;;;;;;5.75;4.35;;;23.20;90.70;;;;;;5029377;28;20049;-77
2023/06/23 10:14:11;;;;;;;6.25;4.50;;;23.30;90.70;;;;;;5046690;28;20037;-77
2023/06/23 10:16:41;;;;;;;4.95;3.45;;;23.40;90.70;;;;;;5029061;28;20124;-77
2023/06/23 10:19:07;;;;;;;6.70;4.18;;;23.40;90.30;;;;;;5047180;28;20127;-77
2023/06/23 10:21:35;;;;;;;7.85;3.80;;;23.50;90.20;;;;;;5029241;28;20032;-77
2023/06/23 10:24:12;;;;;;;7.13;4.05;;;23.50;88.60;;;;;;5046624;28;20024;-77
2023/06/23 10:26:38;;;;;;;4.85;3.80;;;23.60;88.30;;;;;;5045910;28;20052;-77
2023/06/23 10:29:11;;;;;;;6.65;3.67;;;23.60;87.30;;;;;;5045158;28;20055;-77
2023/06/23 10:31:37;;;;;;;;;;;23.50;86.90;;;;;;5044370;28;20029;-77
2023/06/23 10:34:07;;;;;;;6.15;3.47;;;23.60;86.30;;;;;;5045688;28;19920;-77
2023/06/23 10:36:38;;;;;;;5.53;3.42;;;23.60;85.40;;;;;;5042301;28;20173;-77
2023/06/23 10:39:05;;;;;;;5.50;4.00;;;23.60;86.10;;;;;;5044709;28;20029;-77
2023/06/23 10:41:33;;;;;;;6.03;3.28;;;23.70;86.20;;;;;;5047622;28;20025;-75
2023/06/23 10:44:02;;;;;;;5.63;4.47;;;23.70;86.10;;;;;;5046898;28;20029;-76
2023/06/23 10:46:28;;;;;;;6.10;4.53;;;23.70;86.00;;;;;;5029679;28;20418;-76
2023/06/23 10:48:54;;;;;;;6.28;3.55;;;23.70;85.00;;;;;;5046037;28;20028;-76
2023/06/23 10:51:20;;;;;;;5.57;4.05;;;23.60;85.70;;;;;;5029716;28;20025;-76
2023/06/23 10:53:57;;;;;;;3.80;3.28;;;23.50;86.20;;;;;;5029780;28;20035;-76
2023/06/23 10:56:33;;;;;;;6.65;4.32;;;23.40;87.00;;;;;;5042508;28;20017;-76
2023/06/23 10:58:59;;;;;;;6.82;4.00;;;23.50;87.70;;;;;;5030229;28;20033;-76
2023/06/23 11:01:26;;;;;;;4.20;3.60;;;23.50;86.30;;;;;;5028682;28;20040;-77
2023/06/23 11:03:56;;;;;;;5.10;3.75;;;23.60;86.30;;;;;;5047583;28;20016;-76
2023/06/23 11:06:34;;;;;;;5.35;3.70;;;23.60;86.70;;;;;;5044418;28;20067;-76
2023/06/23 11:09:01;;;;;;;6.05;3.90;;;23.70;85.40;;;;;;5046866;28;20036;-77
2023/06/23 11:11:32;;;;;;;6.53;3.53;;;23.60;81.70;;;;;;5048829;28;20056;-77
2023/06/23 11:13:58;;;;;;;4.97;3.10;;;23.60;82.20;;;;;;5049686;28;20028;-78
2023/06/23 11:16:31;;;;;;;4.78;3.20;;;23.70;82.20;;;;;;5022452;28;20031;-77
2023/06/23 11:18:58;;;;;;;4.18;3.28;;;23.60;82.30;;;;;;5029921;28;20110;-77
2023/06/23 11:21:27;;;;;;;5.57;3.72;;;23.70;83.10;;;;;;5049266;28;20084;-77
2023/06/23 11:24:19;;;;;;;4.32;2.83;;;23.70;83.70;;;;;;5030323;28;20484;-78
2023/06/23 11:27:00;;;;;;;4.65;3.58;;;23.80;83.60;;;;;;5045218;28;20040;-78
2023/06/23 11:29:25;;;;;;;4.80;3.42;;;23.80;83.60;;;;;;5047534;28;20060;-77
2023/06/23 11:32:12;;;;;;;4.80;3.20;;;23.90;82.70;;;;;;5045744;28;20068;-77
2023/06/23 11:34:58;;;;;;;6.13;3.08;;;24.00;80.20;;;;;;5043292;28;20029;-77
2023/06/23 11:37:28;;;;;;;4.13;3.38;;;23.90;78.60;;;;;;5050461;28;20048;-77
2023/06/23 11:39:55;;;;;;;5.43;2.95;;;23.90;79.10;;;;;;5033117;28;20043;-77
2023/06/23 11:42:21;;;;;;;4.00;3.05;;;24.00;79.40;;;;;;5051030;28;20518;-77
2023/06/23 11:44:51;;;;;;;4.18;2.55;;;24.10;78.80;;;;;;5049309;28;20029;-77
2023/06/23 11:47:23;;;;;;;5.07;3.72;;;24.10;78.20;;;;;;5046241;28;20028;-77
2023/06/23 11:49:49;;;;;;;4.07;2.90;;;24.20;78.80;;;;;;5033656;28;20064;-77
2023/06/23 11:52:15;;;;;;;4.78;3.20;;;24.30;79.90;;;;;;5051187;28;20099;-77
2023/06/23 11:54:41;;;;;;;4.57;2.95;;;24.40;80.30;;;;;;5051807;28;20123;-77
2023/06/23 11:57:07;;;;;;;4.50;3.17;;;24.50;77.20;;;;;;5049620;28;20040;-77
2023/06/23 11:59:38;;;;;;;4.20;2.90;;;24.50;76.60;;;;;;5049084;28;20029;-77
2023/06/23 12:02:05;;;;;;;4.85;3.10;;;24.60;76.90;;;;;;5032764;28;21079;-77
2023/06/23 12:04:34;;;;;;;6.15;2.97;;;24.60;74.70;;;;;;5050343;28;20727;-76
2023/06/23 12:07:00;;;;;;;4.05;2.63;;;24.60;74.10;;;;;;5056815;28;20053;-77
2023/06/23 12:09:27;;;;;;;4.82;3.10;;;24.60;74.00;;;;;;5052810;28;20025;-77
2023/06/23 12:11:54;;;;;;;3.55;3.05;;;24.50;74.30;;;;;;5039390;28;20047;-78
2023/06/23 12:14:30;;;;;;;4.43;2.85;;;24.50;74.70;;;;;;5034476;28;20017;-78
2023/06/23 12:17:10;;;;;;;4.63;3.03;;;24.40;72.80;;;;;;5049246;28;20028;-78
2023/06/23 12:19:37;;;;;;;3.75;3.05;;;24.30;73.70;;;;;;5051206;28;20407;-77
2023/06/23 12:22:03;;;;;;;4.55;3.00;;;24.20;74.30;;;;;;5043737;28;20534;-78
2023/06/23 12:24:30;;;;;;;4.63;3.30;;;24.10;74.70;;;;;;5051437;28;20025;-78
2023/06/23 12:27:00;;;;;;;3.60;3.15;;;24.10;75.50;;;;;;5049761;28;20028;-78
2023/06/23 12:29:29;;;;;;;4.57;3.60;;;24.00;76.50;;;;;;5050822;28;20021;-78
2023/06/23 12:32:00;;;;;;;5.57;3.70;;;23.90;76.70;;;;;;5047188;28;20028;-78
2023/06/23 12:34:41;;;;;;;5.65;3.67;;;23.80;77.00;;;;;;5035569;28;20485;-77
2023/06/23 12:37:12;;;;;;;5.72;3.17;;;23.80;77.00;;;;;;5030907;28;20028;-78
2023/06/23 12:39:38;;;;;;;6.60;3.38;;;23.80;77.60;;;;;;5048605;28;20024;-78
2023/06/23 12:42:07;;;;;;;3.45;2.90;;;23.90;77.60;;;;;;5053998;28;20021;-78
2023/06/23 12:44:32;;;;;;;5.63;3.03;;;23.90;77.70;;;;;;5052612;28;20472;-77
2023/06/23 12:47:01;;;;;;;4.18;3.20;;;23.90;76.50;;;;;;5050804;28;20079;-77
2023/06/23 12:49:33;;;;;;;3.92;3.03;;;24.00;76.00;;;;;;5051264;28;20024;-77
2023/06/23 12:52:01;;;;;;;4.40;2.80;;;24.10;76.00;;;;;;5053950;28;20044;-77